sensor_id;sensor_type;location;lat;lon;timestamp;temperature;humidity
75049;DHT22;63803;53.120;8.764;2022-09-25T00:00:23;23.20;66.90
75049;DHT22;63803;53.120;8.764;2022-09-25T00:02:49;23.40;66.60
75049;DHT22;63803;53.120;8.764;2022-09-25T00:05:15;23.30;66.80
75049;DHT22;63803;53.120;8.764;2022-09-25T00:07:41;23.20;67.20
75049;DHT22;63803;53.120;8.764;2022-09-25T00:10:07;23.00;67.50
75049;DHT22;63803;53.120;8.764;2022-09-25T00:12:33;22.90;67.90
75049;DHT22;63803;53.120;8.764;2022-09-25T00:14:59;22.80;68.20
75049;DHT22;63803;53.120;8.764;2022-09-25T00:17:25;22.80;68.30
75049;DHT22;63803;53.120;8.764;2022-09-25T00:19:51;22.70;68.30
75049;DHT22;63803;53.120;8.764;2022-09-25T00:22:18;22.70;68.50
75049;DHT22;63803;53.120;8.764;2022-09-25T00:24:44;22.70;68.50
75049;DHT22;63803;53.120;8.764;2022-09-25T00:27:10;22.70;68.50
75049;DHT22;63803;53.120;8.764;2022-09-25T00:29:38;22.70;69.00
75049;DHT22;63803;53.120;8.764;2022-09-25T00:32:05;22.70;68.70
75049;DHT22;63803;53.120;8.764;2022-09-25T00:34:32;22.70;68.70
75049;DHT22;63803;53.120;8.764;2022-09-25T00:36:57;22.80;68.30
75049;DHT22;63803;53.120;8.764;2022-09-25T00:39:23;22.80;67.90
75049;DHT22;63803;53.120;8.764;2022-09-25T00:41:51;22.80;68.90
75049;DHT22;63803;53.120;8.764;2022-09-25T00:44:45;22.80;69.40
75049;DHT22;63803;53.120;8.764;2022-09-25T00:48:10;22.80;70.70
75049;DHT22;63803;53.120;8.764;2022-09-25T00:50:35;23.30;71.30
75049;DHT22;63803;53.120;8.764;2022-09-25T00:53:08;22.80;70.50
75049;DHT22;63803;53.120;8.764;2022-09-25T00:55:36;22.80;71.00
75049;DHT22;63803;53.120;8.764;2022-09-25T00:58:04;22.80;71.70
75049;DHT22;63803;53.120;8.764;2022-09-25T01:00:31;22.80;71.70
75049;DHT22;63803;53.120;8.764;2022-09-25T01:02:57;22.70;71.90
75049;DHT22;63803;53.120;8.764;2022-09-25T01:05:30;22.70;71.90
75049;DHT22;63803;53.120;8.764;2022-09-25T01:07:58;22.70;71.60
75049;DHT22;63803;53.120;8.764;2022-09-25T01:10:25;22.70;71.50
75049;DHT22;63803;53.120;8.764;2022-09-25T01:12:52;22.70;71.70
75049;DHT22;63803;53.120;8.764;2022-09-25T01:18:31;22.70;71.20
75049;DHT22;63803;53.120;8.764;2022-09-25T01:29:15;22.70;71.20
75049;DHT22;63803;53.120;8.764;2022-09-25T01:37:56;22.80;70.80
75049;DHT22;63803;53.120;8.764;2022-09-25T01:41:05;22.80;71.00
75049;DHT22;63803;53.120;8.764;2022-09-25T01:43:37;23.30;70.80
75049;DHT22;63803;53.120;8.764;2022-09-25T01:46:15;22.80;70.60
75049;DHT22;63803;53.120;8.764;2022-09-25T01:48:45;22.80;70.70
75049;DHT22;63803;53.120;8.764;2022-09-25T01:51:23;22.70;70.50
75049;DHT22;63803;53.120;8.764;2022-09-25T01:53:54;22.70;70.40
75049;DHT22;63803;53.120;8.764;2022-09-25T01:56:28;22.70;70.40
75049;DHT22;63803;53.120;8.764;2022-09-25T01:59:27;22.80;70.30
75049;DHT22;63803;53.120;8.764;2022-09-25T02:01:55;22.80;70.10
75049;DHT22;63803;53.120;8.764;2022-09-25T02:04:29;22.80;70.30
75049;DHT22;63803;53.120;8.764;2022-09-25T02:06:59;23.50;70.80
75049;DHT22;63803;53.120;8.764;2022-09-25T02:09:37;22.70;70.30
75049;DHT22;63803;53.120;8.764;2022-09-25T02:12:14;22.70;70.30
75049;DHT22;63803;53.120;8.764;2022-09-25T02:15:03;22.70;70.50
75049;DHT22;63803;53.120;8.764;2022-09-25T02:17:59;22.70;70.50
75049;DHT22;63803;53.120;8.764;2022-09-25T02:20:48;22.70;70.40
75049;DHT22;63803;53.120;8.764;2022-09-25T02:23:19;22.70;70.20
75049;DHT22;63803;53.120;8.764;2022-09-25T02:25:52;22.70;70.30
75049;DHT22;63803;53.120;8.764;2022-09-25T02:28:21;22.70;70.30
75049;DHT22;63803;53.120;8.764;2022-09-25T02:30:48;22.70;70.20
75049;DHT22;63803;53.120;8.764;2022-09-25T02:33:16;22.70;70.20
75049;DHT22;63803;53.120;8.764;2022-09-25T02:35:41;22.70;70.10
75049;DHT22;63803;53.120;8.764;2022-09-25T02:38:08;22.70;70.10
75049;DHT22;63803;53.120;8.764;2022-09-25T02:40:43;22.70;70.10
75049;DHT22;63803;53.120;8.764;2022-09-25T02:46:16;22.60;70.20
75049;DHT22;63803;53.120;8.764;2022-09-25T02:48:58;22.60;70.20
75049;DHT22;63803;53.120;8.764;2022-09-25T02:51:45;22.60;70.10
75049;DHT22;63803;53.120;8.764;2022-09-25T02:54:24;22.60;70.00
75049;DHT22;63803;53.120;8.764;2022-09-25T02:57:00;22.60;70.10
75049;DHT22;63803;53.120;8.764;2022-09-25T02:59:32;22.60;70.00
75049;DHT22;63803;53.120;8.764;2022-09-25T03:01:59;22.70;70.20
75049;DHT22;63803;53.120;8.764;2022-09-25T03:04:26;22.60;70.10
75049;DHT22;63803;53.120;8.764;2022-09-25T03:06:55;22.60;70.10
75049;DHT22;63803;53.120;8.764;2022-09-25T03:09:21;22.60;70.10
75049;DHT22;63803;53.120;8.764;2022-09-25T03:11:48;22.60;70.00
75049;DHT22;63803;53.120;8.764;2022-09-25T03:14:14;22.60;70.10
75049;DHT22;63803;53.120;8.764;2022-09-25T03:16:46;22.60;70.00
75049;DHT22;63803;53.120;8.764;2022-09-25T03:19:14;22.60;69.80
75049;DHT22;63803;53.120;8.764;2022-09-25T03:21:40;22.60;70.00
75049;DHT22;63803;53.120;8.764;2022-09-25T03:24:07;22.60;70.00
75049;DHT22;63803;53.120;8.764;2022-09-25T03:26:33;22.60;70.00
75049;DHT22;63803;53.120;8.764;2022-09-25T03:28:59;22.50;69.80
75049;DHT22;63803;53.120;8.764;2022-09-25T03:31:28;22.60;69.90
75049;DHT22;63803;53.120;8.764;2022-09-25T03:33:54;22.60;69.90
75049;DHT22;63803;53.120;8.764;2022-09-25T03:36:22;22.60;69.90
75049;DHT22;63803;53.120;8.764;2022-09-25T03:38:51;22.60;69.80
75049;DHT22;63803;53.120;8.764;2022-09-25T03:41:21;22.60;69.90
75049;DHT22;63803;53.120;8.764;2022-09-25T03:43:48;22.60;69.80
75049;DHT22;63803;53.120;8.764;2022-09-25T03:46:19;22.60;69.80
75049;DHT22;63803;53.120;8.764;2022-09-25T03:48:44;22.60;69.80
75049;DHT22;63803;53.120;8.764;2022-09-25T03:51:11;22.60;69.70
75049;DHT22;63803;53.120;8.764;2022-09-25T03:53:38;22.60;69.70
75049;DHT22;63803;53.120;8.764;2022-09-25T03:56:08;22.60;69.60
75049;DHT22;63803;53.120;8.764;2022-09-25T03:58:35;22.60;69.70
75049;DHT22;63803;53.120;8.764;2022-09-25T04:01:01;22.60;69.60
75049;DHT22;63803;53.120;8.764;2022-09-25T04:03:28;22.60;69.80
75049;DHT22;63803;53.120;8.764;2022-09-25T04:05:56;22.60;69.80
75049;DHT22;63803;53.120;8.764;2022-09-25T04:08:24;22.60;69.70
75049;DHT22;63803;53.120;8.764;2022-09-25T04:10:55;22.60;69.70
75049;DHT22;63803;53.120;8.764;2022-09-25T04:13:23;22.60;69.40
75049;DHT22;63803;53.120;8.764;2022-09-25T04:15:49;22.60;69.60
75049;DHT22;63803;53.120;8.764;2022-09-25T04:18:15;22.60;69.60
75049;DHT22;63803;53.120;8.764;2022-09-25T04:20:41;22.60;69.70
75049;DHT22;63803;53.120;8.764;2022-09-25T04:23:07;22.60;69.70
75049;DHT22;63803;53.120;8.764;2022-09-25T04:25:33;22.60;69.40
75049;DHT22;63803;53.120;8.764;2022-09-25T04:27:59;22.60;69.50
75049;DHT22;63803;53.120;8.764;2022-09-25T04:30:27;22.60;69.50
75049;DHT22;63803;53.120;8.764;2022-09-25T04:32:53;22.60;69.40
75049;DHT22;63803;53.120;8.764;2022-09-25T04:35:38;22.60;69.50
75049;DHT22;63803;53.120;8.764;2022-09-25T04:38:04;22.60;69.30
75049;DHT22;63803;53.120;8.764;2022-09-25T04:40:30;22.60;69.40
75049;DHT22;63803;53.120;8.764;2022-09-25T04:42:57;22.60;69.30
75049;DHT22;63803;53.120;8.764;2022-09-25T04:45:23;22.60;69.40
75049;DHT22;63803;53.120;8.764;2022-09-25T04:47:52;22.60;69.30
75049;DHT22;63803;53.120;8.764;2022-09-25T04:50:22;22.50;69.30
75049;DHT22;63803;53.120;8.764;2022-09-25T04:52:48;22.60;69.40
75049;DHT22;63803;53.120;8.764;2022-09-25T04:55:20;22.60;69.30
75049;DHT22;63803;53.120;8.764;2022-09-25T04:57:50;22.50;69.30
75049;DHT22;63803;53.120;8.764;2022-09-25T05:00:18;22.60;69.30
75049;DHT22;63803;53.120;8.764;2022-09-25T05:02:45;22.60;69.50
75049;DHT22;63803;53.120;8.764;2022-09-25T05:05:10;22.60;69.40
75049;DHT22;63803;53.120;8.764;2022-09-25T05:07:36;22.70;69.30
75049;DHT22;63803;53.120;8.764;2022-09-25T05:10:05;22.70;69.30
75049;DHT22;63803;53.120;8.764;2022-09-25T05:12:34;22.70;69.20
75049;DHT22;63803;53.120;8.764;2022-09-25T05:15:00;22.60;68.90
75049;DHT22;63803;53.120;8.764;2022-09-25T05:17:26;22.60;68.90
75049;DHT22;63803;53.120;8.764;2022-09-25T05:19:52;22.60;69.00
75049;DHT22;63803;53.120;8.764;2022-09-25T05:22:18;22.60;68.90
75049;DHT22;63803;53.120;8.764;2022-09-25T05:24:44;22.50;69.80
75049;DHT22;63803;53.120;8.764;2022-09-25T05:27:09;22.50;69.00
75049;DHT22;63803;53.120;8.764;2022-09-25T05:29:36;22.60;69.10
75049;DHT22;63803;53.120;8.764;2022-09-25T05:32:02;22.60;69.20
75049;DHT22;63803;53.120;8.764;2022-09-25T05:34:28;22.70;69.10
75049;DHT22;63803;53.120;8.764;2022-09-25T05:36:54;22.60;69.00
75049;DHT22;63803;53.120;8.764;2022-09-25T05:39:20;22.60;69.10
75049;DHT22;63803;53.120;8.764;2022-09-25T05:41:45;22.60;69.00
75049;DHT22;63803;53.120;8.764;2022-09-25T05:44:11;22.60;69.00
75049;DHT22;63803;53.120;8.764;2022-09-25T05:46:38;22.60;69.00
75049;DHT22;63803;53.120;8.764;2022-09-25T05:49:04;22.60;68.80
75049;DHT22;63803;53.120;8.764;2022-09-25T05:51:31;22.60;68.70
75049;DHT22;63803;53.120;8.764;2022-09-25T05:53:57;22.60;68.70
75049;DHT22;63803;53.120;8.764;2022-09-25T05:56:25;22.60;68.50
75049;DHT22;63803;53.120;8.764;2022-09-25T05:58:51;22.60;68.40
75049;DHT22;63803;53.120;8.764;2022-09-25T06:01:19;22.60;68.30
75049;DHT22;63803;53.120;8.764;2022-09-25T06:03:45;22.60;68.20
75049;DHT22;63803;53.120;8.764;2022-09-25T06:06:13;22.60;68.10
75049;DHT22;63803;53.120;8.764;2022-09-25T06:08:39;22.60;68.00
75049;DHT22;63803;53.120;8.764;2022-09-25T06:11:05;22.60;67.90
75049;DHT22;63803;53.120;8.764;2022-09-25T06:13:32;22.50;67.80
75049;DHT22;63803;53.120;8.764;2022-09-25T06:16:00;22.60;67.90
75049;DHT22;63803;53.120;8.764;2022-09-25T06:18:26;22.50;67.80
75049;DHT22;63803;53.120;8.764;2022-09-25T06:20:59;22.50;67.60
75049;DHT22;63803;53.120;8.764;2022-09-25T06:23:25;22.50;67.60
75049;DHT22;63803;53.120;8.764;2022-09-25T06:25:50;22.60;67.50
75049;DHT22;63803;53.120;8.764;2022-09-25T06:28:16;22.50;67.40
75049;DHT22;63803;53.120;8.764;2022-09-25T06:30:42;22.50;67.40
75049;DHT22;63803;53.120;8.764;2022-09-25T06:33:12;22.50;67.30
75049;DHT22;63803;53.120;8.764;2022-09-25T06:35:41;22.50;67.30
75049;DHT22;63803;53.120;8.764;2022-09-25T06:38:08;22.50;67.20
75049;DHT22;63803;53.120;8.764;2022-09-25T06:40:34;22.50;67.10
75049;DHT22;63803;53.120;8.764;2022-09-25T06:43:03;22.50;67.10
75049;DHT22;63803;53.120;8.764;2022-09-25T06:45:31;22.50;67.00
75049;DHT22;63803;53.120;8.764;2022-09-25T06:48:02;22.50;67.00
75049;DHT22;63803;53.120;8.764;2022-09-25T06:50:31;22.50;66.90
75049;DHT22;63803;53.120;8.764;2022-09-25T06:52:58;22.50;66.90
75049;DHT22;63803;53.120;8.764;2022-09-25T06:55:25;22.50;66.80
75049;DHT22;63803;53.120;8.764;2022-09-25T06:57:50;22.50;66.80
75049;DHT22;63803;53.120;8.764;2022-09-25T07:00:16;22.50;66.70
75049;DHT22;63803;53.120;8.764;2022-09-25T07:02:42;22.40;66.60
75049;DHT22;63803;53.120;8.764;2022-09-25T07:05:27;22.50;66.60
75049;DHT22;63803;53.120;8.764;2022-09-25T07:07:55;22.50;66.50
75049;DHT22;63803;53.120;8.764;2022-09-25T07:10:21;22.50;66.40
75049;DHT22;63803;53.120;8.764;2022-09-25T07:12:47;22.50;66.40
75049;DHT22;63803;53.120;8.764;2022-09-25T07:15:13;22.50;66.80
75049;DHT22;63803;53.120;8.764;2022-09-25T07:17:43;22.50;66.10
75049;DHT22;63803;53.120;8.764;2022-09-25T07:20:10;22.50;66.00
75049;DHT22;63803;53.120;8.764;2022-09-25T07:22:39;22.50;65.90
75049;DHT22;63803;53.120;8.764;2022-09-25T07:25:06;22.50;65.90
75049;DHT22;63803;53.120;8.764;2022-09-25T07:27:32;22.50;65.80
75049;DHT22;63803;53.120;8.764;2022-09-25T07:29:57;22.50;65.70
75049;DHT22;63803;53.120;8.764;2022-09-25T07:32:23;22.50;65.70
75049;DHT22;63803;53.120;8.764;2022-09-25T07:34:49;22.50;65.60
75049;DHT22;63803;53.120;8.764;2022-09-25T07:37:16;22.50;65.60
75049;DHT22;63803;53.120;8.764;2022-09-25T07:39:42;22.50;65.60
75049;DHT22;63803;53.120;8.764;2022-09-25T07:42:09;22.50;65.60
75049;DHT22;63803;53.120;8.764;2022-09-25T07:44:35;22.50;65.50
75049;DHT22;63803;53.120;8.764;2022-09-25T07:47:01;22.50;65.50
75049;DHT22;63803;53.120;8.764;2022-09-25T07:49:31;22.50;65.40
75049;DHT22;63803;53.120;8.764;2022-09-25T07:51:58;22.50;65.40
75049;DHT22;63803;53.120;8.764;2022-09-25T07:54:24;22.50;65.30
75049;DHT22;63803;53.120;8.764;2022-09-25T07:56:50;22.50;65.30
75049;DHT22;63803;53.120;8.764;2022-09-25T07:59:16;22.50;65.30
75049;DHT22;63803;53.120;8.764;2022-09-25T08:01:41;22.50;65.20
75049;DHT22;63803;53.120;8.764;2022-09-25T08:04:07;22.50;65.20
75049;DHT22;63803;53.120;8.764;2022-09-25T08:06:34;22.50;65.20
75049;DHT22;63803;53.120;8.764;2022-09-25T08:09:00;22.50;65.20
75049;DHT22;63803;53.120;8.764;2022-09-25T08:11:25;22.50;65.10
75049;DHT22;63803;53.120;8.764;2022-09-25T08:13:52;22.50;65.10
75049;DHT22;63803;53.120;8.764;2022-09-25T08:16:19;22.50;65.10
75049;DHT22;63803;53.120;8.764;2022-09-25T08:18:47;22.50;65.00
75049;DHT22;63803;53.120;8.764;2022-09-25T08:21:17;22.50;65.00
75049;DHT22;63803;53.120;8.764;2022-09-25T08:23:50;22.50;65.00
75049;DHT22;63803;53.120;8.764;2022-09-25T08:26:17;22.50;65.00
75049;DHT22;63803;53.120;8.764;2022-09-25T08:28:43;22.50;65.60
75049;DHT22;63803;53.120;8.764;2022-09-25T08:31:09;22.50;64.90
75049;DHT22;63803;53.120;8.764;2022-09-25T08:33:35;22.50;64.90
75049;DHT22;63803;53.120;8.764;2022-09-25T08:36:03;22.50;64.90
75049;DHT22;63803;53.120;8.764;2022-09-25T08:38:30;22.50;64.80
75049;DHT22;63803;53.120;8.764;2022-09-25T08:43:25;22.50;64.70
75049;DHT22;63803;53.120;8.764;2022-09-25T08:45:53;22.50;64.70
75049;DHT22;63803;53.120;8.764;2022-09-25T08:48:57;22.50;64.70
75049;DHT22;63803;53.120;8.764;2022-09-25T08:51:34;22.50;64.70
75049;DHT22;63803;53.120;8.764;2022-09-25T08:54:02;22.50;64.60
75049;DHT22;63803;53.120;8.764;2022-09-25T08:56:29;22.50;64.60
75049;DHT22;63803;53.120;8.764;2022-09-25T08:59:23;22.50;64.50
75049;DHT22;63803;53.120;8.764;2022-09-25T09:01:54;22.50;64.50
75049;DHT22;63803;53.120;8.764;2022-09-25T09:04:26;22.50;64.50
75049;DHT22;63803;53.120;8.764;2022-09-25T09:06:59;22.50;64.50
75049;DHT22;63803;53.120;8.764;2022-09-25T09:09:32;22.50;64.50
75049;DHT22;63803;53.120;8.764;2022-09-25T09:14:48;22.50;64.50
75049;DHT22;63803;53.120;8.764;2022-09-25T09:17:20;22.50;64.40
75049;DHT22;63803;53.120;8.764;2022-09-25T09:19:50;22.50;64.40
75049;DHT22;63803;53.120;8.764;2022-09-25T09:22:25;22.50;64.30
75049;DHT22;63803;53.120;8.764;2022-09-25T09:25:12;22.50;64.40
75049;DHT22;63803;53.120;8.764;2022-09-25T09:47:34;22.50;64.00
75049;DHT22;63803;53.120;8.764;2022-09-25T09:50:17;22.50;64.00
75049;DHT22;63803;53.120;8.764;2022-09-25T09:52:47;22.50;64.10
75049;DHT22;63803;53.120;8.764;2022-09-25T09:56:08;22.50;64.00
75049;DHT22;63803;53.120;8.764;2022-09-25T09:58:28;22.50;64.00
75049;DHT22;63803;53.120;8.764;2022-09-25T10:00:56;22.50;64.00
75049;DHT22;63803;53.120;8.764;2022-09-25T10:03:35;22.50;64.00
75049;DHT22;63803;53.120;8.764;2022-09-25T10:06:07;22.50;63.90
75049;DHT22;63803;53.120;8.764;2022-09-25T10:08:34;22.50;63.90
75049;DHT22;63803;53.120;8.764;2022-09-25T10:11:24;22.50;63.90
75049;DHT22;63803;53.120;8.764;2022-09-25T10:13:49;22.40;63.90
75049;DHT22;63803;53.120;8.764;2022-09-25T10:16:21;22.50;63.80
75049;DHT22;63803;53.120;8.764;2022-09-25T10:22:05;22.50;63.80
75049;DHT22;63803;53.120;8.764;2022-09-25T10:24:51;22.40;64.30
75049;DHT22;63803;53.120;8.764;2022-09-25T10:27:37;22.40;64.30
75049;DHT22;63803;53.120;8.764;2022-09-25T10:35:14;22.40;63.60
75049;DHT22;63803;53.120;8.764;2022-09-25T10:37:40;22.40;63.60
75049;DHT22;63803;53.120;8.764;2022-09-25T10:43:03;22.40;63.60
75049;DHT22;63803;53.120;8.764;2022-09-25T10:45:34;22.40;63.60
75049;DHT22;63803;53.120;8.764;2022-09-25T10:48:00;22.40;63.60
75049;DHT22;63803;53.120;8.764;2022-09-25T10:51:08;22.40;63.60
75049;DHT22;63803;53.120;8.764;2022-09-25T10:53:34;22.40;63.60
75049;DHT22;63803;53.120;8.764;2022-09-25T10:56:06;22.40;63.50
75049;DHT22;63803;53.120;8.764;2022-09-25T10:58:54;22.40;63.50
75049;DHT22;63803;53.120;8.764;2022-09-25T11:01:32;22.40;63.50
75049;DHT22;63803;53.120;8.764;2022-09-25T11:04:03;22.40;63.50
75049;DHT22;63803;53.120;8.764;2022-09-25T11:06:30;22.40;63.50
75049;DHT22;63803;53.120;8.764;2022-09-25T11:09:05;22.40;63.40
75049;DHT22;63803;53.120;8.764;2022-09-25T11:11:34;22.40;63.40
75049;DHT22;63803;53.120;8.764;2022-09-25T11:14:03;22.40;63.40
75049;DHT22;63803;53.120;8.764;2022-09-25T11:16:53;22.40;63.40
75049;DHT22;63803;53.120;8.764;2022-09-25T11:27:14;22.40;63.30
75049;DHT22;63803;53.120;8.764;2022-09-25T11:30:04;22.40;63.40
75049;DHT22;63803;53.120;8.764;2022-09-25T11:33:03;22.40;63.30
75049;DHT22;63803;53.120;8.764;2022-09-25T11:35:46;22.40;63.30
75049;DHT22;63803;53.120;8.764;2022-09-25T11:41:31;22.40;63.30
75049;DHT22;63803;53.120;8.764;2022-09-25T11:44:20;22.40;63.30
75049;DHT22;63803;53.120;8.764;2022-09-25T11:47:11;22.40;63.30
75049;DHT22;63803;53.120;8.764;2022-09-25T11:49:40;22.40;63.30
75049;DHT22;63803;53.120;8.764;2022-09-25T12:00:23;22.40;63.30
75049;DHT22;63803;53.120;8.764;2022-09-25T12:11:55;22.40;63.20
75049;DHT22;63803;53.120;8.764;2022-09-25T12:14:54;22.40;63.30
75049;DHT22;63803;53.120;8.764;2022-09-25T12:17:39;22.40;63.20
75049;DHT22;63803;53.120;8.764;2022-09-25T12:23:26;22.40;63.10
75049;DHT22;63803;53.120;8.764;2022-09-25T12:26:12;22.40;63.10
75049;DHT22;63803;53.120;8.764;2022-09-25T12:28:50;22.40;63.10
75049;DHT22;63803;53.120;8.764;2022-09-25T12:39:57;22.40;63.10
75049;DHT22;63803;53.120;8.764;2022-09-25T12:45:20;22.40;63.20
75049;DHT22;63803;53.120;8.764;2022-09-25T12:50:21;22.40;63.10
75049;DHT22;63803;53.120;8.764;2022-09-25T12:55:47;22.40;63.10
75049;DHT22;63803;53.120;8.764;2022-09-25T12:58:16;22.40;63.10
75049;DHT22;63803;53.120;8.764;2022-09-25T13:00:51;22.30;63.00
75049;DHT22;63803;53.120;8.764;2022-09-25T13:03:42;22.40;63.10
75049;DHT22;63803;53.120;8.764;2022-09-25T13:06:13;22.30;63.00
75049;DHT22;63803;53.120;8.764;2022-09-25T13:11:42;22.40;63.10
75049;DHT22;63803;53.120;8.764;2022-09-25T13:14:22;22.30;63.00
75049;DHT22;63803;53.120;8.764;2022-09-25T13:16:50;22.30;62.90
75049;DHT22;63803;53.120;8.764;2022-09-25T13:19:28;22.40;63.00
75049;DHT22;63803;53.120;8.764;2022-09-25T13:22:18;22.30;62.90
75049;DHT22;63803;53.120;8.764;2022-09-25T13:24:49;22.30;62.90
75049;DHT22;63803;53.120;8.764;2022-09-25T13:27:22;22.30;62.90
75049;DHT22;63803;53.120;8.764;2022-09-25T13:29:57;22.40;63.00
75049;DHT22;63803;53.120;8.764;2022-09-25T13:32:26;22.30;62.90
75049;DHT22;63803;53.120;8.764;2022-09-25T13:34:59;22.30;62.90
75049;DHT22;63803;53.120;8.764;2022-09-25T13:37:34;22.30;62.80
75049;DHT22;63803;53.120;8.764;2022-09-25T13:40:14;22.30;62.80
75049;DHT22;63803;53.120;8.764;2022-09-25T13:45:41;22.30;62.90
75049;DHT22;63803;53.120;8.764;2022-09-25T13:48:10;22.30;62.70
75049;DHT22;63803;53.120;8.764;2022-09-25T13:50:46;22.30;62.80
75049;DHT22;63803;53.120;8.764;2022-09-25T13:53:13;22.40;62.80
75049;DHT22;63803;53.120;8.764;2022-09-25T13:58:25;22.40;62.80
75049;DHT22;63803;53.120;8.764;2022-09-25T14:00:54;22.30;62.60
75049;DHT22;63803;53.120;8.764;2022-09-25T14:03:39;22.30;62.60
75049;DHT22;63803;53.120;8.764;2022-09-25T14:06:26;22.40;62.70
75049;DHT22;63803;53.120;8.764;2022-09-25T14:08:55;22.40;62.70
75049;DHT22;63803;53.120;8.764;2022-09-25T14:11:28;22.40;62.60
75049;DHT22;63803;53.120;8.764;2022-09-25T14:13:58;22.30;62.60
75049;DHT22;63803;53.120;8.764;2022-09-25T14:16:32;22.30;62.50
75049;DHT22;63803;53.120;8.764;2022-09-25T14:19:01;22.30;62.50
75049;DHT22;63803;53.120;8.764;2022-09-25T14:21:28;22.30;63.10
75049;DHT22;63803;53.120;8.764;2022-09-25T14:23:57;22.30;62.40
75049;DHT22;63803;53.120;8.764;2022-09-25T14:26:43;22.40;62.50
75049;DHT22;63803;53.120;8.764;2022-09-25T14:29:17;22.30;62.40
75049;DHT22;63803;53.120;8.764;2022-09-25T14:35:00;22.30;62.40
75049;DHT22;63803;53.120;8.764;2022-09-25T14:40:29;22.30;62.30
75049;DHT22;63803;53.120;8.764;2022-09-25T14:46:14;22.40;62.30
75049;DHT22;63803;53.120;8.764;2022-09-25T14:51:14;22.30;62.20
75049;DHT22;63803;53.120;8.764;2022-09-25T14:53:48;22.40;62.30
75049;DHT22;63803;53.120;8.764;2022-09-25T14:56:18;22.30;62.20
75049;DHT22;63803;53.120;8.764;2022-09-25T14:58:48;22.40;62.20
75049;DHT22;63803;53.120;8.764;2022-09-25T15:01:30;22.30;62.20
75049;DHT22;63803;53.120;8.764;2022-09-25T15:04:02;22.40;62.10
75049;DHT22;63803;53.120;8.764;2022-09-25T15:06:33;22.40;62.20
75049;DHT22;63803;53.120;8.764;2022-09-25T15:09:00;22.30;62.10
75049;DHT22;63803;53.120;8.764;2022-09-25T15:11:41;22.30;62.10
75049;DHT22;63803;53.120;8.764;2022-09-25T15:14:16;22.30;62.10
75049;DHT22;63803;53.120;8.764;2022-09-25T15:16:44;22.30;62.10
75049;DHT22;63803;53.120;8.764;2022-09-25T15:19:31;22.30;62.00
75049;DHT22;63803;53.120;8.764;2022-09-25T15:21:58;22.30;62.00
75049;DHT22;63803;53.120;8.764;2022-09-25T15:24:29;22.30;62.00
75049;DHT22;63803;53.120;8.764;2022-09-25T15:27:00;22.30;62.00
75049;DHT22;63803;53.120;8.764;2022-09-25T15:29:34;22.30;62.00
75049;DHT22;63803;53.120;8.764;2022-09-25T15:32:01;22.30;61.90
75049;DHT22;63803;53.120;8.764;2022-09-25T15:34:31;22.30;61.90
75049;DHT22;63803;53.120;8.764;2022-09-25T15:37:26;22.30;61.90
75049;DHT22;63803;53.120;8.764;2022-09-25T15:39:54;22.30;61.90
75049;DHT22;63803;53.120;8.764;2022-09-25T15:42:20;22.30;61.80
75049;DHT22;63803;53.120;8.764;2022-09-25T15:44:47;22.30;61.80
75049;DHT22;63803;53.120;8.764;2022-09-25T15:50:18;22.30;61.80
75049;DHT22;63803;53.120;8.764;2022-09-25T15:52:48;22.30;61.70
75049;DHT22;63803;53.120;8.764;2022-09-25T15:55:16;22.30;61.80
75049;DHT22;63803;53.120;8.764;2022-09-25T15:57:42;22.40;61.80
75049;DHT22;63803;53.120;8.764;2022-09-25T16:00:18;22.30;61.70
75049;DHT22;63803;53.120;8.764;2022-09-25T16:03:23;22.30;61.80
75049;DHT22;63803;53.120;8.764;2022-09-25T16:06:17;22.30;61.90
75049;DHT22;63803;53.120;8.764;2022-09-25T16:08:43;22.30;62.00
75049;DHT22;63803;53.120;8.764;2022-09-25T16:11:21;22.20;61.80
75049;DHT22;63803;53.120;8.764;2022-09-25T16:13:50;22.20;62.00
75049;DHT22;63803;53.120;8.764;2022-09-25T16:16:27;22.30;62.30
75049;DHT22;63803;53.120;8.764;2022-09-25T16:18:58;22.30;62.50
75049;DHT22;63803;53.120;8.764;2022-09-25T16:23:53;22.30;63.80
75049;DHT22;63803;53.120;8.764;2022-09-25T16:26:21;22.30;63.70
75049;DHT22;63803;53.120;8.764;2022-09-25T16:29:14;22.40;64.20
75049;DHT22;63803;53.120;8.764;2022-09-25T16:31:44;22.20;63.30
75049;DHT22;63803;53.120;8.764;2022-09-25T16:34:26;22.10;62.50
75049;DHT22;63803;53.120;8.764;2022-09-25T16:36:55;21.90;61.20
75049;DHT22;63803;53.120;8.764;2022-09-25T16:39:38;21.80;60.80
75049;DHT22;63803;53.120;8.764;2022-09-25T16:42:24;21.70;59.80
75049;DHT22;63803;53.120;8.764;2022-09-25T16:45:25;21.70;59.00
75049;DHT22;63803;53.120;8.764;2022-09-25T16:47:58;21.70;61.30
75049;DHT22;63803;53.120;8.764;2022-09-25T16:50:27;21.60;58.20
75049;DHT22;63803;53.120;8.764;2022-09-25T16:52:53;21.50;57.60
75049;DHT22;63803;53.120;8.764;2022-09-25T16:55:22;21.60;58.50
75049;DHT22;63803;53.120;8.764;2022-09-25T16:57:50;21.60;58.40
75049;DHT22;63803;53.120;8.764;2022-09-25T17:00:22;21.60;59.60
75049;DHT22;63803;53.120;8.764;2022-09-25T17:02:48;21.70;61.20
75049;DHT22;63803;53.120;8.764;2022-09-25T17:05:18;21.90;60.50
75049;DHT22;63803;53.120;8.764;2022-09-25T17:07:46;22.00;60.60
75049;DHT22;63803;53.120;8.764;2022-09-25T17:10:14;22.10;61.20
75049;DHT22;63803;53.120;8.764;2022-09-25T17:12:42;22.10;62.10
75049;DHT22;63803;53.120;8.764;2022-09-25T17:15:24;22.20;62.80
75049;DHT22;63803;53.120;8.764;2022-09-25T17:17:51;22.20;63.00
75049;DHT22;63803;53.120;8.764;2022-09-25T17:20:20;22.20;63.40
75049;DHT22;63803;53.120;8.764;2022-09-25T17:22:48;22.30;63.60
75049;DHT22;63803;53.120;8.764;2022-09-25T17:25:28;22.30;63.90
75049;DHT22;63803;53.120;8.764;2022-09-25T17:27:58;22.30;64.00
75049;DHT22;63803;53.120;8.764;2022-09-25T17:30:24;22.30;64.20
75049;DHT22;63803;53.120;8.764;2022-09-25T17:32:50;22.30;64.00
75049;DHT22;63803;53.120;8.764;2022-09-25T17:37:56;22.40;64.30
75049;DHT22;63803;53.120;8.764;2022-09-25T17:40:22;22.30;64.40
75049;DHT22;63803;53.120;8.764;2022-09-25T17:42:48;22.30;64.40
75049;DHT22;63803;53.120;8.764;2022-09-25T17:45:44;22.30;64.50
75049;DHT22;63803;53.120;8.764;2022-09-25T17:48:17;22.30;64.60
75049;DHT22;63803;53.120;8.764;2022-09-25T17:51:15;22.40;64.60
75049;DHT22;63803;53.120;8.764;2022-09-25T17:53:41;22.30;64.60
75049;DHT22;63803;53.120;8.764;2022-09-25T17:56:09;22.30;64.60
75049;DHT22;63803;53.120;8.764;2022-09-25T17:58:35;22.30;64.70
75049;DHT22;63803;53.120;8.764;2022-09-25T18:01:02;22.40;64.80
75049;DHT22;63803;53.120;8.764;2022-09-25T18:03:30;22.40;64.70
75049;DHT22;63803;53.120;8.764;2022-09-25T18:05:56;22.40;64.90
75049;DHT22;63803;53.120;8.764;2022-09-25T18:08:22;22.40;64.70
75049;DHT22;63803;53.120;8.764;2022-09-25T18:10:51;22.40;64.80